Time;durP1;ratioP1;P1;durP2;ratioP2;P2;SDS_P1;SDS_P2;PMS_P1;PMS_P2;Temp;Humidity;BMP_temperature;BMP_pressure;BME280_temperature;BME280_humidity;BME280_pressure;Samples;Min_cycle;Max_cycle;Signal;HPM_P1;HPM_P2
2022/03/28 00:01:56;;;;;;;32.42;16.75;;;7.90;99.90;;;;;;5152082;27;20030;-40
2022/03/28 00:04:22;;;;;;;29.70;16.48;;;7.90;99.90;;;;;;5141002;27;20050;-40
2022/03/28 00:06:48;;;;;;;30.00;15.30;;;7.70;99.90;;;;;;5144374;27;20525;-40
2022/03/28 00:09:14;;;;;;;29.23;15.10;;;7.80;99.90;;;;;;5147239;27;20037;-40
2022/03/28 00:11:40;;;;;;;32.28;15.73;;;7.70;99.90;;;;;;5143003;27;20102;-40
2022/03/28 00:14:05;;;;;;;25.27;14.45;;;7.60;99.90;;;;;;5151802;27;20015;-40
2022/03/28 00:16:31;;;;;;;27.10;14.38;;;7.60;99.90;;;;;;5151729;27;20503;-40
2022/03/28 00:18:57;;;;;;;26.73;15.45;;;7.60;99.90;;;;;;5136194;27;20504;-40
2022/03/28 00:21:23;;;;;;;31.40;15.98;;;7.70;99.90;;;;;;5149054;27;20035;-40
2022/03/28 00:23:48;;;;;;;26.70;15.23;;;7.70;99.90;;;;;;5151522;27;20064;-40
2022/03/28 00:26:14;;;;;;;33.60;17.20;;;7.60;99.90;;;;;;5151425;27;20103;-40
2022/03/28 00:28:39;;;;;;;28.65;15.27;;;7.60;99.90;;;;;;5150947;27;20022;-40
2022/03/28 00:31:05;;;;;;;29.50;15.63;;;7.50;99.90;;;;;;5151213;27;20083;-40
2022/03/28 00:33:30;;;;;;;34.28;17.38;;;7.50;99.90;;;;;;5131216;27;20459;-40
2022/03/28 00:35:56;;;;;;;36.83;18.35;;;7.40;99.90;;;;;;5144870;27;20027;-39
2022/03/28 00:38:22;;;;;;;33.15;17.10;;;7.40;99.90;;;;;;5148166;27;20047;-40
2022/03/28 00:40:48;;;;;;;45.30;18.45;;;7.40;99.90;;;;;;5140478;27;20352;-40
2022/03/28 00:43:13;;;;;;;45.10;20.25;;;7.40;99.90;;;;;;5151737;27;20433;-39
2022/03/28 00:45:40;;;;;;;42.42;19.70;;;7.30;99.90;;;;;;5145297;27;20487;-40
2022/03/28 00:48:07;;;;;;;40.13;18.90;;;7.30;99.90;;;;;;5142348;27;20110;-39
2022/03/28 00:50:33;;;;;;;39.80;19.27;;;7.20;99.90;;;;;;5150479;27;20080;-40
2022/03/28 00:53:00;;;;;;;41.72;19.13;;;7.20;99.90;;;;;;5134442;27;20022;-39
2022/03/28 00:55:26;;;;;;;32.53;17.23;;;7.10;99.90;;;;;;5141183;27;20367;-40
2022/03/28 00:57:53;;;;;;;30.13;16.27;;;7.00;99.90;;;;;;5150931;27;20387;-40
2022/03/28 01:00:19;;;;;;;37.15;16.80;;;7.00;99.90;;;;;;5148724;27;20050;-40
2022/03/28 01:02:46;;;;;;;34.95;16.23;;;6.90;99.90;;;;;;5149294;27;20023;-40
2022/03/28 01:05:12;;;;;;;39.40;18.23;;;6.90;99.90;;;;;;5137164;27;20034;-39
2022/03/28 01:07:39;;;;;;;30.23;15.20;;;6.80;99.90;;;;;;5134921;27;20460;-40
2022/03/28 01:10:06;;;;;;;37.08;16.67;;;6.80;99.90;;;;;;5149745;27;20038;-39
2022/03/28 01:12:34;;;;;;;33.95;16.73;;;6.80;99.90;;;;;;5139388;27;20019;-40
2022/03/28 01:15:00;;;;;;;36.08;16.65;;;6.70;99.90;;;;;;5150964;27;20357;-39
2022/03/28 01:20:11;;;;;;;52.40;22.90;;;6.80;99.90;;;;;;5139173;27;20126;-39
2022/03/28 01:22:37;;;;;;;52.65;25.05;;;6.90;99.90;;;;;;5140997;27;20053;-39
2022/03/28 01:25:05;;;;;;;57.33;24.42;;;7.00;99.90;;;;;;5132298;27;20055;-39
2022/03/28 01:27:32;;;;;;;58.88;26.02;;;7.10;99.90;;;;;;5129822;27;20054;-39
2022/03/28 01:29:57;;;;;;;81.88;27.88;;;7.10;99.90;;;;;;5125606;27;20283;-39
2022/03/28 01:32:23;;;;;;;70.72;30.50;;;7.10;99.90;;;;;;5141848;27;20019;-39
2022/03/28 01:34:49;;;;;;;76.43;29.55;;;7.10;99.90;;;;;;5143907;27;20411;-39
2022/03/28 01:37:14;;;;;;;81.25;29.58;;;7.20;99.90;;;;;;5136719;27;20070;-42
2022/03/28 01:39:40;;;;;;;76.68;32.03;;;7.30;99.90;;;;;;5129226;27;20019;-39
2022/03/28 01:42:06;;;;;;;86.40;31.88;;;7.30;99.90;;;;;;5129727;28;20049;-39
2022/03/28 01:44:31;;;;;;;80.30;30.90;;;7.30;99.90;;;;;;5129381;28;20419;-39
2022/03/28 01:46:57;;;;;;;79.93;30.35;;;7.30;99.90;;;;;;5130169;27;20249;-39
2022/03/28 01:49:22;;;;;;;75.70;30.70;;;7.30;99.90;;;;;;5146946;27;20034;-39
2022/03/28 01:51:49;;;;;;;74.57;29.60;;;7.30;99.90;;;;;;5150169;27;20034;-39
2022/03/28 01:54:16;;;;;;;67.20;28.20;;;7.30;99.90;;;;;;5150109;27;20530;-40
2022/03/28 01:56:42;;;;;;;74.65;29.60;;;7.30;99.90;;;;;;5149934;27;20027;-39
2022/03/28 01:59:08;;;;;;;69.53;27.08;;;7.30;99.90;;;;;;5149211;27;20440;-40
2022/03/28 02:01:35;;;;;;;74.95;29.73;;;7.30;99.90;;;;;;5149902;27;20259;-39
2022/03/28 02:04:00;;;;;;;64.45;27.15;;;7.30;99.90;;;;;;5141901;27;20022;-39
2022/03/28 02:06:26;;;;;;;75.47;31.17;;;7.30;99.90;;;;;;5132091;27;20395;-39
2022/03/28 02:08:52;;;;;;;72.75;30.02;;;7.30;99.90;;;;;;5142710;27;20027;-39
2022/03/28 02:11:18;;;;;;;69.93;30.70;;;7.30;99.90;;;;;;5148759;27;20413;-39
2022/03/28 02:13:43;;;;;;;75.85;30.60;;;7.30;99.90;;;;;;5148557;27;20034;-40
2022/03/28 02:16:09;;;;;;;64.88;26.55;;;7.20;99.90;;;;;;5152534;27;20026;-40
2022/03/28 02:18:35;;;;;;;63.42;26.02;;;7.20;99.90;;;;;;5153386;27;20049;-41
2022/03/28 02:21:00;;;;;;;62.15;26.70;;;7.10;99.90;;;;;;5153976;27;20107;-40
2022/03/28 02:23:27;;;;;;;58.90;24.90;;;7.10;99.90;;;;;;5146403;27;20031;-40
2022/03/28 02:25:53;;;;;;;48.42;23.73;;;6.90;99.90;;;;;;5144949;27;20047;-40
2022/03/28 02:28:18;;;;;;;52.33;23.65;;;6.80;99.90;;;;;;5132572;27;20659;-39
2022/03/28 02:30:44;;;;;;;59.28;24.08;;;6.80;99.90;;;;;;5133083;27;20102;-40
2022/03/28 02:33:09;;;;;;;53.78;23.95;;;6.70;99.90;;;;;;5149027;27;20030;-40
2022/03/28 02:35:35;;;;;;;52.70;24.77;;;6.70;99.90;;;;;;5153786;27;20098;-40
2022/03/28 02:38:01;;;;;;;54.08;22.90;;;6.70;99.90;;;;;;5142795;27;20041;-40
2022/03/28 02:40:32;;;;;;;50.45;22.00;;;6.60;99.90;;;;;;5144297;27;20089;-40
2022/03/28 02:42:59;;;;;;;53.10;24.17;;;6.60;99.90;;;;;;5153463;27;20496;-40
2022/03/28 02:45:25;;;;;;;48.45;21.88;;;6.50;99.90;;;;;;5153360;27;20030;-39
2022/03/28 02:47:51;;;;;;;83.25;32.28;;;6.50;99.90;;;;;;5134402;27;20019;-39
2022/03/28 02:50:16;;;;;;;68.55;28.38;;;6.60;99.90;;;;;;5147962;27;20071;-39
2022/03/28 02:52:42;;;;;;;63.17;27.02;;;6.50;99.90;;;;;;5153569;27;20484;-39
2022/03/28 02:55:08;;;;;;;68.95;26.40;;;6.50;99.90;;;;;;5153572;27;20544;-39
2022/03/28 02:57:33;;;;;;;76.63;29.83;;;6.60;99.90;;;;;;5143168;27;20027;-40
2022/03/28 02:59:59;;;;;;;69.28;30.80;;;6.60;99.90;;;;;;5125999;27;20161;-39
2022/03/28 03:02:24;;;;;;;67.20;28.63;;;6.60;99.90;;;;;;5120544;27;20106;-39
2022/03/28 03:04:50;;;;;;;70.72;28.73;;;6.50;99.90;;;;;;5127791;27;20034;-40
2022/03/28 03:07:16;;;;;;;74.18;29.30;;;6.50;99.90;;;;;;5124776;27;20012;-39
2022/03/28 03:09:41;;;;;;;68.32;27.77;;;6.50;99.90;;;;;;5119906;27;20027;-39
2022/03/28 03:12:08;;;;;;;74.70;31.25;;;6.40;99.90;;;;;;5120551;27;20077;-39
2022/03/28 03:14:33;;;;;;;79.20;32.30;;;6.50;99.90;;;;;;5122083;27;20077;-39
2022/03/28 03:16:59;;;;;;;78.28;34.15;;;6.50;99.90;;;;;;5124334;27;20027;-39
2022/03/28 03:19:24;;;;;;;86.45;32.97;;;6.40;99.90;;;;;;5127674;27;20026;-40
2022/03/28 03:21:50;;;;;;;78.28;33.22;;;6.40;99.90;;;;;;5120282;27;20500;-39
2022/03/28 03:24:16;;;;;;;88.07;36.22;;;6.40;99.90;;;;;;5122288;27;20016;-39
2022/03/28 03:26:42;;;;;;;82.80;33.45;;;6.40;99.90;;;;;;5119797;27;20106;-40
2022/03/28 03:29:08;;;;;;;80.85;32.67;;;6.40;99.90;;;;;;5125900;27;20028;-40
2022/03/28 03:31:34;;;;;;;75.20;33.08;;;6.40;99.90;;;;;;5122212;27;20053;-39
2022/03/28 03:33:59;;;;;;;77.20;33.20;;;6.30;99.90;;;;;;5120891;27;20054;-39
2022/03/28 03:36:25;;;;;;;76.38;30.27;;;6.20;99.90;;;;;;5128069;27;20098;-39
2022/03/28 03:38:51;;;;;;;77.57;30.65;;;6.20;99.90;;;;;;5117121;27;20488;-40
2022/03/28 03:41:16;;;;;;;78.63;30.17;;;6.10;99.90;;;;;;5125582;27;20043;-40
2022/03/28 03:43:44;;;;;;;75.90;32.80;;;6.10;99.90;;;;;;5123676;27;20020;-39
2022/03/28 03:46:09;;;;;;;76.15;30.75;;;6.00;99.90;;;;;;5112969;27;20036;-39
2022/03/28 03:48:35;;;;;;;82.63;31.02;;;6.00;99.90;;;;;;5110559;28;20115;-39
2022/03/28 03:51:01;;;;;;;73.10;30.45;;;6.00;99.90;;;;;;5133521;27;20058;-39
2022/03/28 03:53:26;;;;;;;72.47;30.20;;;6.00;99.90;;;;;;5148707;27;20018;-39
2022/03/28 03:55:52;;;;;;;78.00;30.17;;;5.90;99.90;;;;;;5150741;27;20027;-39
2022/03/28 03:58:17;;;;;;;70.30;30.33;;;5.90;99.90;;;;;;5148008;27;20536;-39
2022/03/28 04:00:43;;;;;;;91.10;33.42;;;5.90;99.90;;;;;;5134009;27;20038;-39
2022/03/28 04:03:08;;;;;;;82.55;32.53;;;5.90;99.90;;;;;;5131271;27;20067;-40
2022/03/28 04:05:37;;;;;;;75.28;32.45;;;5.90;99.90;;;;;;5125603;27;20016;-39
2022/03/28 04:08:04;;;;;;;79.88;33.30;;;5.90;99.90;;;;;;5143134;27;20432;-39
2022/03/28 04:10:31;;;;;;;83.88;32.75;;;5.80;99.90;;;;;;5151109;27;20463;-39
2022/03/28 04:12:57;;;;;;;81.88;32.38;;;5.80;99.90;;;;;;5132982;27;20020;-39
2022/03/28 04:15:22;;;;;;;77.32;29.83;;;5.80;99.90;;;;;;5149100;27;20414;-39
2022/03/28 04:17:48;;;;;;;70.90;29.75;;;5.70;99.90;;;;;;5151718;27;20034;-39
2022/03/28 04:20:15;;;;;;;77.38;31.90;;;5.60;99.90;;;;;;5146380;27;20122;-39
2022/03/28 04:22:42;;;;;;;76.90;29.77;;;5.60;99.90;;;;;;5130880;27;20038;-39
2022/03/28 04:25:10;;;;;;;70.07;27.90;;;5.60;99.90;;;;;;5129134;27;20476;-39
2022/03/28 04:27:37;;;;;;;63.75;28.35;;;5.60;99.90;;;;;;5133349;27;20033;-40
2022/03/28 04:30:08;;;;;;;65.50;29.33;;;5.50;99.90;;;;;;5145110;27;20038;-39
2022/03/28 04:32:34;;;;;;;68.28;29.02;;;5.50;99.90;;;;;;5151352;27;20376;-39
2022/03/28 04:35:00;;;;;;;77.45;31.23;;;5.50;99.90;;;;;;5151325;27;20079;-39
2022/03/28 04:37:26;;;;;;;79.00;32.08;;;5.40;99.90;;;;;;5138000;27;20027;-39
2022/03/28 04:39:51;;;;;;;84.93;32.00;;;5.40;99.90;;;;;;5150945;27;20026;-39
2022/03/28 04:42:17;;;;;;;83.18;29.95;;;5.40;99.90;;;;;;5151429;27;20057;-39
2022/03/28 04:44:42;;;;;;;75.55;30.10;;;5.40;99.90;;;;;;5151350;27;20026;-39
2022/03/28 04:47:08;;;;;;;90.38;31.60;;;5.40;99.90;;;;;;5151434;27;20106;-39
2022/03/28 04:49:34;;;;;;;71.05;30.33;;;5.40;99.90;;;;;;5150528;27;20027;-44
2022/03/28 04:52:00;;;;;;;76.55;31.25;;;5.30;99.90;;;;;;5133651;27;20054;-38
2022/03/28 04:54:25;;;;;;;70.80;29.40;;;5.30;99.90;;;;;;5148537;27;20029;-38
2022/03/28 04:56:51;;;;;;;81.40;32.30;;;5.30;99.90;;;;;;5151113;27;20027;-38
2022/03/28 04:59:17;;;;;;;69.80;30.15;;;5.30;99.90;;;;;;5149720;27;20033;-38
2022/03/28 05:01:42;;;;;;;73.97;29.63;;;5.30;99.90;;;;;;5130253;27;20023;-38
2022/03/28 05:04:07;;;;;;;80.57;32.20;;;5.30;99.90;;;;;;5145737;27;20030;-38
2022/03/28 05:06:33;;;;;;;79.05;30.80;;;5.30;99.90;;;;;;5144499;27;20133;-38
2022/03/28 05:08:59;;;;;;;75.30;30.05;;;5.30;99.90;;;;;;5142722;27;20037;-38
2022/03/28 05:11:24;;;;;;;99.07;30.60;;;5.30;99.90;;;;;;5149129;27;20030;-38
2022/03/28 05:13:50;;;;;;;66.50;27.38;;;5.30;99.90;;;;;;5150558;27;20105;-39
2022/03/28 05:16:16;;;;;;;61.90;26.02;;;5.30;99.90;;;;;;5150691;27;20126;-39
2022/03/28 05:18:42;;;;;;;52.17;23.58;;;5.30;99.90;;;;;;5142279;27;20203;-39
2022/03/28 05:21:07;;;;;;;50.95;24.30;;;5.30;99.90;;;;;;5132238;27;20144;-38
2022/03/28 05:23:34;;;;;;;53.00;23.67;;;5.30;99.90;;;;;;5121204;27;20019;-38
2022/03/28 05:25:59;;;;;;;58.75;24.88;;;5.20;99.90;;;;;;5121416;27;20111;-38
2022/03/28 05:28:25;;;;;;;49.47;23.30;;;5.20;99.90;;;;;;5116561;27;20102;-39
2022/03/28 05:30:52;;;;;;;44.55;21.50;;;5.20;99.90;;;;;;5121849;27;20107;-38
2022/03/28 05:33:17;;;;;;;49.95;22.00;;;5.10;99.90;;;;;;5125299;27;20015;-38
2022/03/28 05:35:44;;;;;;;50.00;22.52;;;5.10;99.90;;;;;;5111410;27;20042;-38
2022/03/28 05:38:10;;;;;;;51.03;24.15;;;5.10;99.90;;;;;;5123983;27;20407;-38
2022/03/28 05:40:36;;;;;;;50.47;22.55;;;5.10;99.90;;;;;;5121689;27;20016;-38
2022/03/28 05:43:02;;;;;;;43.80;20.70;;;5.00;99.90;;;;;;5119803;27;20019;-38
2022/03/28 05:45:28;;;;;;;37.28;18.70;;;4.90;99.90;;;;;;5125596;27;20346;-38
2022/03/28 05:47:53;;;;;;;49.55;20.95;;;4.90;99.90;;;;;;5116629;27;20031;-38
2022/03/28 05:50:19;;;;;;;45.88;20.45;;;4.80;99.90;;;;;;5114430;27;20472;-38
2022/03/28 05:52:45;;;;;;;37.58;18.85;;;4.80;99.90;;;;;;5141241;27;20562;-38
2022/03/28 05:55:10;;;;;;;43.10;19.83;;;4.80;99.90;;;;;;5130494;27;20106;-38
2022/03/28 05:57:36;;;;;;;40.65;19.60;;;4.80;99.90;;;;;;5127475;27;20038;-38
2022/03/28 06:00:05;;;;;;;36.88;17.33;;;4.80;99.90;;;;;;5128067;27;20027;-38
2022/03/28 06:02:31;;;;;;;30.13;15.55;;;4.80;99.90;;;;;;5121918;27;20027;-38
2022/03/28 06:04:57;;;;;;;28.88;14.70;;;4.80;99.90;;;;;;5138227;27;20119;-37
2022/03/28 06:07:22;;;;;;;24.88;15.00;;;4.80;99.90;;;;;;5133438;27;20118;-45
2022/03/28 06:09:47;;;;;;;26.70;13.63;;;4.80;99.90;;;;;;5144786;27;20509;-46
2022/03/28 06:12:13;;;;;;;22.85;12.90;;;4.80;99.90;;;;;;5128807;27;20027;-45
2022/03/28 06:14:38;;;;;;;23.77;14.05;;;4.80;99.90;;;;;;5145538;27;20037;-45
2022/03/28 06:17:04;;;;;;;22.05;13.27;;;4.80;99.90;;;;;;5144712;27;20030;-45
2022/03/28 06:19:31;;;;;;;26.30;14.23;;;4.70;99.90;;;;;;5112230;28;20031;-45
2022/03/28 06:21:56;;;;;;;24.88;14.13;;;4.80;99.90;;;;;;5112950;28;20047;-46
2022/03/28 06:24:22;;;;;;;28.00;15.32;;;4.80;99.90;;;;;;5112625;28;20401;-45
2022/03/28 06:26:47;;;;;;;25.80;15.63;;;4.90;99.90;;;;;;5112654;28;20020;-44
2022/03/28 06:29:12;;;;;;;27.17;14.45;;;4.90;99.90;;;;;;5118604;27;20026;-45
2022/03/28 06:31:38;;;;;;;24.42;14.85;;;4.70;99.90;;;;;;5132957;27;20130;-38
2022/03/28 06:34:04;;;;;;;25.15;14.18;;;4.70;99.90;;;;;;5136704;27;20073;-38
2022/03/28 06:36:30;;;;;;;32.58;17.10;;;4.70;99.90;;;;;;5144874;27;20106;-38
2022/03/28 06:38:56;;;;;;;26.60;15.50;;;4.70;99.90;;;;;;5139800;27;20050;-38
2022/03/28 06:41:22;;;;;;;34.75;16.60;;;4.80;99.90;;;;;;5122983;27;20024;-38
2022/03/28 06:43:48;;;;;;;35.30;17.95;;;4.70;99.90;;;;;;5111983;28;20024;-38
2022/03/28 06:46:13;;;;;;;29.38;16.23;;;4.80;99.90;;;;;;5112189;28;20080;-38
2022/03/28 06:48:39;;;;;;;28.65;16.83;;;4.80;99.90;;;;;;5110093;28;20481;-38
2022/03/28 06:51:07;;;;;;;36.08;18.98;;;4.90;99.90;;;;;;5125692;27;20038;-45
2022/03/28 06:53:32;;;;;;;28.45;15.18;;;4.90;99.90;;;;;;5144773;27;20064;-45
2022/03/28 06:55:58;;;;;;;28.90;15.45;;;5.00;99.90;;;;;;5153539;27;20347;-45
2022/03/28 06:58:24;;;;;;;27.25;14.40;;;5.10;99.90;;;;;;5118722;27;20035;-45
2022/03/28 07:00:50;;;;;;;20.10;13.18;;;5.20;99.90;;;;;;5115593;27;20027;-45
2022/03/28 07:03:15;;;;;;;24.23;13.43;;;5.30;99.90;;;;;;5132488;27;20023;-44
2022/03/28 07:05:41;;;;;;;20.77;12.60;;;5.30;99.90;;;;;;5132446;27;20491;-46
2022/03/28 07:08:08;;;;;;;22.35;12.73;;;5.30;99.90;;;;;;5132836;27;20364;-48
2022/03/28 07:10:34;;;;;;;22.02;13.55;;;5.20;99.90;;;;;;5127047;27;20151;-45
2022/03/28 07:12:59;;;;;;;24.10;13.63;;;5.30;99.90;;;;;;5117018;27;20460;-46
2022/03/28 07:15:27;;;;;;;29.52;13.90;;;5.40;99.90;;;;;;5132248;27;20055;-46
2022/03/28 07:17:57;;;;;;;19.02;11.73;;;5.50;99.90;;;;;;5132479;27;20011;-48
2022/03/28 07:20:27;;;;;;;17.83;10.23;;;5.40;99.90;;;;;;5127273;27;20472;-46
2022/03/28 07:22:54;;;;;;;17.13;10.45;;;5.60;99.90;;;;;;5124263;27;20062;-46
2022/03/28 07:25:21;;;;;;;15.20;11.00;;;5.50;99.90;;;;;;5120175;27;20326;-45
2022/03/28 07:27:47;;;;;;;19.92;10.27;;;5.60;99.90;;;;;;5121583;27;20012;-47
2022/03/28 07:30:14;;;;;;;15.27;10.35;;;5.60;99.90;;;;;;5120331;27;20480;-46
2022/03/28 07:32:40;;;;;;;15.40;8.82;;;5.60;99.90;;;;;;5122514;27;20029;-46
2022/03/28 07:35:07;;;;;;;13.05;8.65;;;5.60;99.90;;;;;;5111236;28;20016;-46
2022/03/28 07:37:34;;;;;;;16.83;9.95;;;5.70;99.90;;;;;;5111299;28;20207;-45
2022/03/28 07:40:00;;;;;;;14.55;8.93;;;5.70;99.90;;;;;;5110859;28;20024;-47
2022/03/28 07:42:26;;;;;;;10.80;7.45;;;5.80;99.90;;;;;;5129978;27;20022;-45
2022/03/28 07:44:56;;;;;;;8.05;6.32;;;5.80;99.90;;;;;;5130642;27;20387;-47
2022/03/28 07:47:23;;;;;;;11.50;8.13;;;5.80;99.90;;;;;;5129257;27;20110;-45
2022/03/28 07:49:49;;;;;;;17.70;10.20;;;5.70;99.90;;;;;;5119729;27;20036;-47
2022/03/28 07:52:14;;;;;;;13.07;9.40;;;5.90;99.90;;;;;;5127499;27;20050;-47
2022/03/28 07:54:40;;;;;;;11.45;8.73;;;5.90;99.90;;;;;;5139501;27;20027;-46
2022/03/28 07:57:06;;;;;;;13.80;8.98;;;6.00;99.90;;;;;;5129891;27;20070;-45
2022/03/28 07:59:31;;;;;;;13.80;9.15;;;6.20;99.90;;;;;;5130685;27;20099;-46
2022/03/28 08:01:57;;;;;;;13.45;9.13;;;6.10;99.90;;;;;;5131423;27;20030;-46
2022/03/28 08:04:22;;;;;;;12.30;8.07;;;6.00;99.90;;;;;;5131879;27;20023;-46
2022/03/28 08:06:48;;;;;;;11.70;7.88;;;6.00;99.90;;;;;;5138699;27;20019;-46
2022/03/28 08:09:14;;;;;;;14.48;8.95;;;5.90;99.90;;;;;;5148262;27;20034;-47
2022/03/28 08:11:42;;;;;;;14.68;9.02;;;6.00;99.90;;;;;;5137563;27;20361;-48
2022/03/28 08:14:07;;;;;;;13.60;7.90;;;5.90;99.90;;;;;;5130662;27;20077;-45
2022/03/28 08:16:34;;;;;;;12.45;8.38;;;6.00;99.90;;;;;;5130092;27;20031;-47
2022/03/28 08:18:59;;;;;;;10.82;8.25;;;6.00;99.90;;;;;;5130935;27;20092;-45
2022/03/28 08:21:25;;;;;;;12.43;8.18;;;6.10;99.90;;;;;;5127592;27;20011;-45
2022/03/28 08:23:51;;;;;;;12.20;7.47;;;6.10;99.90;;;;;;5143463;27;20023;-45
2022/03/28 08:26:16;;;;;;;9.93;7.20;;;6.20;99.90;;;;;;5152097;27;20050;-48
2022/03/28 08:28:44;;;;;;;11.23;8.23;;;6.30;99.90;;;;;;5131515;27;20054;-45
2022/03/28 08:31:10;;;;;;;10.52;8.07;;;6.50;99.90;;;;;;5143638;27;20046;-45
2022/03/28 08:33:35;;;;;;;9.65;7.40;;;6.40;99.90;;;;;;5130738;27;20070;-46
2022/03/28 08:36:01;;;;;;;9.35;7.35;;;6.40;99.90;;;;;;5127979;27;20023;-45
2022/03/28 08:38:26;;;;;;;8.60;6.50;;;6.50;99.90;;;;;;5137533;27;20427;-47
2022/03/28 08:40:52;;;;;;;10.82;7.28;;;6.60;99.90;;;;;;5136906;27;20019;-45
2022/03/28 08:43:20;;;;;;;10.52;6.82;;;6.60;99.90;;;;;;5129338;27;20030;-45
2022/03/28 08:45:48;;;;;;;10.75;8.00;;;6.80;99.90;;;;;;5129613;27;20480;-46
2022/03/28 08:48:14;;;;;;;13.52;7.60;;;6.60;99.90;;;;;;5130167;27;20031;-46
2022/03/28 08:50:43;;;;;;;9.10;6.93;;;6.80;99.90;;;;;;5113335;27;20031;-46
2022/03/28 08:53:09;;;;;;;12.90;8.07;;;7.00;99.90;;;;;;5134605;27;20020;-45
2022/03/28 08:55:35;;;;;;;13.02;8.15;;;7.10;99.90;;;;;;5130491;27;20107;-46
2022/03/28 08:58:00;;;;;;;10.02;8.40;;;7.10;99.90;;;;;;5127210;27;20433;-45
2022/03/28 09:00:26;;;;;;;14.82;8.55;;;7.20;99.90;;;;;;5115859;27;20501;-47
2022/03/28 09:02:55;;;;;;;15.45;8.90;;;7.30;99.90;;;;;;5131604;27;20058;-45
2022/03/28 09:05:31;;;;;;;12.10;9.10;;;7.30;99.90;;;;;;5147381;27;20022;-45
2022/03/28 09:07:58;;;;;;;15.23;9.43;;;7.40;99.90;;;;;;5150108;27;20026;-45
2022/03/28 09:10:27;;;;;;;20.52;10.30;;;7.40;99.90;;;;;;5142980;27;20280;-45
2022/03/28 09:13:22;;;;;;;17.33;9.37;;;7.40;99.90;;;;;;5137668;27;20026;-45
2022/03/28 09:15:57;;;;;;;14.75;9.05;;;7.40;99.90;;;;;;5133023;27;20070;-45
2022/03/28 09:18:34;;;;;;;12.77;9.70;;;7.50;99.90;;;;;;5115260;27;20044;-46
2022/03/28 09:21:02;;;;;;;16.30;10.38;;;7.50;99.90;;;;;;5129134;27;20079;-46
2022/03/28 09:23:38;;;;;;;19.25;9.85;;;7.30;99.90;;;;;;5140409;27;20080;-46
2022/03/28 09:26:16;;;;;;;19.45;9.80;;;7.50;99.90;;;;;;5151249;27;20167;-46
2022/03/28 09:28:58;;;;;;;18.02;10.07;;;7.50;99.90;;;;;;5148959;27;20026;-45
2022/03/28 09:31:30;;;;;;;16.63;9.13;;;7.60;99.90;;;;;;5131817;27;20029;-45
2022/03/28 09:34:09;;;;;;;12.88;8.20;;;7.80;99.90;;;;;;5131135;27;20023;-45
2022/03/28 09:36:54;;;;;;;12.32;8.95;;;8.00;99.90;;;;;;5129522;27;20461;-47
2022/03/28 09:39:28;;;;;;;17.60;9.93;;;8.30;99.90;;;;;;5119476;27;20080;-45
2022/03/28 09:42:11;;;;;;;13.32;9.35;;;8.50;99.90;;;;;;5121115;27;20106;-46
2022/03/28 09:44:42;;;;;;;20.27;10.27;;;8.60;99.90;;;;;;5122047;27;20023;-46
2022/03/28 09:47:13;;;;;;;16.48;8.13;;;8.80;99.90;;;;;;5119973;28;20024;-45
2022/03/28 09:49:42;;;;;;;19.35;9.05;;;9.30;99.90;;;;;;5119741;28;20705;-45
2022/03/28 09:52:17;;;;;;;17.40;8.93;;;9.60;99.90;;;;;;5122887;27;20084;-46
2022/03/28 09:55:00;;;;;;;10.90;8.20;;;9.70;99.90;;;;;;5126402;27;20019;-46
2022/03/28 09:57:37;;;;;;;16.75;8.80;;;9.90;99.90;;;;;;5122339;27;20020;-45
2022/03/28 10:00:14;;;;;;;14.02;8.73;;;10.30;99.90;;;;;;5122031;27;20068;-47
2022/03/28 10:02:40;;;;;;;12.88;8.10;;;10.60;99.90;;;;;;5118475;28;20012;-46
2022/03/28 10:05:07;;;;;;;10.30;7.57;;;10.90;99.90;;;;;;5119788;28;20033;-47
2022/03/28 10:07:33;;;;;;;10.32;7.40;;;10.80;99.90;;;;;;5119050;28;20019;-45
2022/03/28 10:10:00;;;;;;;14.27;8.02;;;11.00;99.90;;;;;;5120678;27;20027;-46
2022/03/28 10:12:26;;;;;;;14.05;7.40;;;11.50;99.90;;;;;;5120384;27;20068;-44
2022/03/28 10:14:57;;;;;;;13.30;7.55;;;11.60;99.90;;;;;;5124782;27;20114;-46
2022/03/28 10:17:24;;;;;;;9.93;6.95;;;12.10;99.90;;;;;;5121727;28;20024;-47
2022/03/28 10:19:50;;;;;;;15.43;8.38;;;11.90;99.90;;;;;;5119120;28;20047;-46
2022/03/28 10:22:28;;;;;;;13.70;8.57;;;12.30;99.90;;;;;;5124807;27;20055;-45
2022/03/28 10:24:57;;;;;;;13.75;9.02;;;12.30;99.90;;;;;;5118569;28;20027;-45
2022/03/28 10:27:24;;;;;;;13.70;8.23;;;12.40;99.90;;;;;;5118471;27;20445;-46
2022/03/28 10:29:51;;;;;;;14.68;9.32;;;12.30;99.90;;;;;;5123027;27;20058;-45
2022/03/28 10:32:19;;;;;;;16.23;10.32;;;12.70;99.90;;;;;;5121025;27;20484;-45
2022/03/28 10:34:52;;;;;;;17.63;9.75;;;12.80;99.90;;;;;;5118841;28;20034;-45
2022/03/28 10:37:38;;;;;;;14.45;8.43;;;13.70;99.60;;;;;;5120389;27;20302;-44
2022/03/28 10:40:26;;;;;;;12.18;8.55;;;14.70;97.90;;;;;;5121889;27;20019;-38
2022/03/28 10:43:11;;;;;;;12.95;7.63;;;15.50;97.20;;;;;;5127828;27;20019;-45
2022/03/28 10:45:49;;;;;;;11.95;8.20;;;16.30;92.70;;;;;;5123787;27;20623;-45
2022/03/28 10:48:16;;;;;;;13.65;6.65;;;17.00;90.80;;;;;;5123854;27;20030;-45
2022/03/28 10:50:51;;;;;;;9.90;6.65;;;18.70;88.30;;;;;;5126395;27;20109;-39
2022/03/28 10:53:26;;;;;;;9.43;7.20;;;19.60;79.10;;;;;;5128802;27;20016;-47
2022/03/28 10:55:57;;;;;;;7.75;6.15;;;20.30;74.10;;;;;;5129467;27;20018;-46
2022/03/28 10:58:31;;;;;;;14.25;8.32;;;20.20;70.80;;;;;;5121249;27;20032;-48
2022/03/28 11:01:15;;;;;;;11.18;7.45;;;19.50;68.60;;;;;;5130898;27;20058;-39
2022/03/28 11:04:05;;;;;;;10.07;7.38;;;19.80;71.90;;;;;;5135655;27;20268;-45
2022/03/28 11:06:52;;;;;;;12.07;6.97;;;20.50;67.00;;;;;;5133289;27;20073;-45
2022/03/28 11:09:39;;;;;;;8.25;6.35;;;21.20;67.10;;;;;;5133688;27;20027;-45
2022/03/28 11:12:14;;;;;;;15.20;8.05;;;21.90;64.90;;;;;;5131642;27;20027;-45
2022/03/28 11:14:51;;;;;;;9.82;6.50;;;22.00;63.10;;;;;;5119555;27;20023;-46
2022/03/28 11:17:28;;;;;;;9.15;6.90;;;22.40;62.00;;;;;;5138030;27;20037;-45
2022/03/28 11:20:09;;;;;;;8.40;6.10;;;22.70;59.80;;;;;;5121981;27;20034;-46
2022/03/28 11:22:44;;;;;;;8.65;6.60;;;22.80;59.80;;;;;;5123975;27;20026;-46
2022/03/28 11:25:30;;;;;;;10.35;6.90;;;22.90;57.50;;;;;;5142878;27;20014;-45
2022/03/28 11:28:04;;;;;;;14.68;8.57;;;22.70;58.80;;;;;;5140136;27;20027;-39
2022/03/28 11:30:29;;;;;;;10.25;7.03;;;22.10;57.30;;;;;;5122193;27;20110;-45
2022/03/28 11:32:55;;;;;;;10.50;7.22;;;22.60;58.00;;;;;;5142001;27;20110;-49
2022/03/28 11:35:21;;;;;;;8.80;6.38;;;22.80;58.00;;;;;;5121846;27;20015;-45
2022/03/28 11:37:47;;;;;;;12.43;6.60;;;23.10;59.00;;;;;;5123788;27;20037;-39
2022/03/28 11:40:13;;;;;;;12.35;7.57;;;23.00;58.70;;;;;;5126959;27;20079;-39
2022/03/28 11:42:45;;;;;;;11.23;7.45;;;22.90;58.10;;;;;;5133320;27;20027;-46
2022/03/28 11:45:12;;;;;;;13.30;8.77;;;23.00;58.60;;;;;;5138395;27;20030;-48
2022/03/28 11:47:48;;;;;;;11.40;7.20;;;23.50;56.10;;;;;;5150863;27;20015;-39
2022/03/28 11:50:14;;;;;;;12.20;7.50;;;23.10;56.70;;;;;;5132429;27;20023;-45
2022/03/28 11:52:40;;;;;;;13.48;8.07;;;22.70;58.00;;;;;;5125649;27;20034;-39
2022/03/28 11:55:19;;;;;;;16.83;8.65;;;23.20;57.40;;;;;;5116049;27;20411;-39
2022/03/28 12:00:35;;;;;;;14.95;8.18;;;23.00;55.80;;;;;;5111280;27;20117;-39
2022/03/28 12:03:01;;;;;;;13.80;7.68;;;22.70;57.10;;;;;;5126457;27;20110;-39
2022/03/28 12:05:34;;;;;;;11.10;6.78;;;22.90;58.30;;;;;;5125323;27;20103;-40
2022/03/28 12:08:21;;;;;;;14.05;7.85;;;22.80;57.10;;;;;;5119453;27;20019;-39
2022/03/28 12:10:52;;;;;;;13.52;8.35;;;22.90;54.60;;;;;;5120051;27;20403;-45
2022/03/28 12:13:21;;;;;;;9.32;7.18;;;22.60;56.50;;;;;;5121459;27;20043;-47
2022/03/28 12:15:48;;;;;;;13.95;7.97;;;22.10;57.60;;;;;;5123681;27;20034;-39
2022/03/28 12:18:16;;;;;;;13.60;7.43;;;22.10;57.60;;;;;;5119012;27;20088;-45
2022/03/28 12:20:44;;;;;;;17.48;7.80;;;22.10;58.10;;;;;;5120968;27;20019;-44
2022/03/28 12:23:12;;;;;;;10.85;7.43;;;22.20;56.80;;;;;;5120370;27;20026;-45
2022/03/28 12:25:39;;;;;;;11.65;7.20;;;21.90;58.90;;;;;;5121791;27;20031;-45
2022/03/28 12:28:11;;;;;;;10.18;6.90;;;21.50;59.40;;;;;;5118650;27;20024;-45
2022/03/28 12:30:40;;;;;;;9.82;6.57;;;21.30;59.10;;;;;;5117613;27;20491;-45
2022/03/28 12:33:13;;;;;;;10.65;6.70;;;20.40;61.50;;;;;;5121664;27;20107;-45
2022/03/28 12:36:00;;;;;;;10.52;6.10;;;20.50;59.70;;;;;;5119955;27;20445;-45
2022/03/28 12:38:29;;;;;;;9.20;6.55;;;20.40;60.90;;;;;;5125406;27;20341;-47
2022/03/28 12:40:58;;;;;;;13.60;7.43;;;20.20;63.70;;;;;;5123249;27;20015;-46
2022/03/28 12:43:27;;;;;;;9.75;6.50;;;20.20;62.10;;;;;;5122064;27;20012;-45
2022/03/28 12:46:04;;;;;;;11.07;6.28;;;20.00;63.20;;;;;;5118437;27;20039;-45
2022/03/28 12:48:41;;;;;;;10.85;6.22;;;19.90;62.10;;;;;;5126303;27;20023;-38